メインページ
METAR-TAF:

METAR-TAF

空港 :

クアトロ・デ・フェベレイロ空港

ルアンダ, アンゴラ

緯度: 08-51S, 経度: 013-14E, 海抜: 74m

現時点の気象観測

当レポートは1時間22分前の11:00(UTC)に作成
西/北西の風 8kt
気温 29°C
湿度 70%
気圧 1010 hPa
視程10km以上
高度2000ftの雲はほとんどない

METAR: FNLU 211100Z 29008KT 9999 FEW020 29/23 Q1010 NOSIG

時間: 13:22 (12:22 UTC)

予報

当レポートは1時間22分前の11:00(UTC)に作成
予報は21日の 12時(UTC)から 22日の 18時(UTC)まで有効
西の風 10kt
視程10km以上
高度2000ftの雲は散在している
21日の 18時(UTC)から 21日の 20時(UTC)まで徐々に
の風 10kt
22日の 00時(UTC)から 22日の 02時(UTC)まで徐々に
の風 5kt
高度2300ftの千切れ雲あり
22日の 03時(UTC)から 22日の 08時(UTC)まで一時的に
視程: 8000m
高度1500ftの雲はほとんどない
高度1800ftの千切れ雲あり
小雨
22日の 09時(UTC)から 22日の 12時(UTC)まで徐々に
変向風 3kt
視程: 9000m
高度2300ftの千切れ雲あり

TAF: FNLU 211100Z 2112/2218 27010KT 9999 SCT020 BECMG 2118/2120 19010KT BECMG 2200/2202 19005KT BKN023 TEMPO 2203/2208 8000 -RA FEW015 BKN018 BECMG 2209/2212 VRB03KT 9000 BKN023

4,000以上の空港の気象観測と天気予報(METAR報とTAF報)

利用可能な観測所は地図上に黄色い丸と赤い丸で示す。

丸の上にカーソルを重ねると観測所名を参照できる。

次にクリックすると気象観測と天気予報を参照できる。

マップの切り替え:黒色「×」印の緑ボタンをクリックして拡大、「-」印の緑ボタンをクリックして縮小、緑色の三角印をクリックして隣りの地図に切り替え


METAR-TAF: